createdAt,value
2023-01-30T00:04:17.466Z,24.00
2023-01-30T00:09:22.501Z,22.00
2023-01-30T00:14:27.205Z,20.75
2023-01-30T00:19:31.852Z,22.00
2023-01-30T00:24:36.633Z,26.75
2023-01-30T00:29:41.217Z,28.00
2023-01-30T00:34:45.878Z,21.50
2023-01-30T00:39:51.456Z,25.75
2023-01-30T00:45:14.024Z,25.00
2023-01-30T00:50:18.720Z,27.75
2023-01-30T00:55:23.735Z,22.25
2023-01-30T01:00:28.819Z,26.25
2023-01-30T01:05:33.476Z,24.00
2023-01-30T01:10:38.229Z,23.00
2023-01-30T01:15:42.727Z,23.00
2023-01-30T01:20:47.750Z,23.50
2023-01-30T01:25:52.284Z,19.75
2023-01-30T01:30:56.860Z,21.50
2023-01-30T01:36:04.841Z,20.75
2023-01-30T01:41:11.510Z,20.50
2023-01-30T01:46:20.093Z,35.75
2023-01-30T01:51:34.365Z,54.25
2023-01-30T01:56:43.982Z,50.50
2023-01-30T02:01:50.626Z,49.75
2023-01-30T02:06:57.364Z,42.50
2023-01-30T02:12:02.717Z,39.75
2023-01-30T02:17:12.008Z,37.75
2023-01-30T02:22:29.219Z,34.00
2023-01-30T02:27:53.603Z,36.25
2023-01-30T02:33:04.311Z,29.25
2023-01-30T02:38:12.185Z,39.25
2023-01-30T02:43:49.036Z,36.50
2023-01-30T02:48:59.689Z,32.75
2023-01-30T02:54:07.765Z,34.25
2023-01-30T02:59:12.897Z,31.75
2023-01-30T03:04:37.274Z,35.50
2023-01-30T03:10:03.687Z,42.75
2023-01-30T03:15:09.371Z,31.00
2023-01-30T03:20:15.876Z,33.50
2023-01-30T03:25:24.162Z,38.50
2023-01-30T03:30:29.642Z,37.00
2023-01-30T03:35:44.805Z,50.25
2023-01-30T03:40:52.214Z,34.50
2023-01-30T03:45:57.559Z,30.25
2023-01-30T03:51:02.387Z,30.75
2023-01-30T03:56:09.468Z,34.00
2023-01-30T04:01:14.509Z,37.25
2023-01-30T04:06:20.118Z,36.50
2023-01-30T04:11:25.242Z,33.50
2023-01-30T04:16:30.308Z,44.25
2023-01-30T04:21:50.289Z,35.25
2023-01-30T04:26:55.558Z,42.75
2023-01-30T04:32:00.759Z,42.75
2023-01-30T04:37:10.896Z,145.25
2023-01-30T04:42:16.454Z,122.00
2023-01-30T04:47:36.740Z,108.25
2023-01-30T04:52:44.944Z,84.25
2023-01-30T04:57:50.407Z,77.75
2023-01-30T05:02:57.428Z,80.00
2023-01-30T05:08:03.264Z,77.00
2023-01-30T05:13:08.358Z,70.00
2023-01-30T05:18:12.918Z,68.25
2023-01-30T05:23:20.819Z,75.25
2023-01-30T05:28:26.176Z,83.25
2023-01-30T05:33:31.469Z,81.75
2023-01-30T05:38:36.412Z,128.00
2023-01-30T05:43:40.816Z,215.00
2023-01-30T05:48:45.806Z,288.50
2023-01-30T05:53:51.464Z,386.50
2023-01-30T05:58:57.607Z,420.75
2023-01-30T06:04:03.492Z,390.25
2023-01-30T06:09:08.621Z,341.50
2023-01-30T06:14:14.865Z,324.75
2023-01-30T06:19:19.476Z,319.25
2023-01-30T06:24:24.425Z,297.75
2023-01-30T06:29:29.816Z,326.25
2023-01-30T06:34:34.749Z,292.00
2023-01-30T06:39:39.608Z,283.50
2023-01-30T06:44:45.567Z,309.50
2023-01-30T06:49:50.995Z,288.50
2023-01-30T06:54:55.971Z,272.50
2023-01-30T07:00:00.806Z,266.25
2023-01-30T07:05:10.119Z,251.75
2023-01-30T07:10:15.290Z,252.50
2023-01-30T07:15:20.722Z,234.00
2023-01-30T07:20:26.589Z,232.75
2023-01-30T07:25:32.240Z,234.75
2023-01-30T07:30:38.667Z,233.00
2023-01-30T07:35:43.713Z,219.33
2023-01-30T07:40:48.707Z,222.00
2023-01-30T07:45:53.572Z,226.25
2023-01-30T07:50:59.095Z,211.50
2023-01-30T08:12:10.318Z,165.75
2023-01-30T08:17:15.662Z,155.25
2023-01-30T08:22:20.579Z,173.25
2023-01-30T08:27:25.713Z,171.25
2023-01-30T08:32:31.133Z,165.75
2023-01-30T08:37:36.047Z,163.25
2023-01-30T08:42:40.886Z,166.33
2023-01-30T08:47:45.786Z,161.00
2023-01-30T08:52:50.554Z,149.00
2023-01-30T08:57:57.909Z,152.67
2023-01-30T09:03:03.486Z,162.00
2023-01-30T09:08:09.644Z,144.67
2023-01-30T09:13:14.614Z,123.00
2023-01-30T09:18:19.499Z,125.33
2023-01-30T09:23:24.385Z,121.33
2023-01-30T09:28:29.367Z,128.33
2023-01-30T09:33:36.809Z,122.00
2023-01-30T09:38:41.724Z,103.33
2023-01-30T09:43:51.870Z,109.00
2023-01-30T09:49:22.758Z,152.67
2023-01-30T09:54:36.554Z,152.00
2023-01-30T09:59:47.203Z,204.67
2023-01-30T10:05:01.284Z,185.67
2023-01-30T10:10:06.984Z,209.75
2023-01-30T10:15:21.722Z,330.50
2023-01-30T10:20:42.421Z,280.50
2023-01-30T10:25:57.372Z,192.50
2023-01-30T10:31:22.412Z,165.25
2023-01-30T10:36:36.684Z,148.67
2023-01-30T10:41:52.706Z,131.67
2023-01-30T10:47:12.877Z,118.33
2023-01-30T10:52:21.809Z,129.33
2023-01-30T10:57:33.847Z,129.67
2023-01-30T11:02:38.893Z,116.67
2023-01-30T11:07:45.252Z,103.00
2023-01-30T11:12:51.110Z,91.00
2023-01-30T11:18:33.461Z,94.50
2023-01-30T11:23:36.002Z,81.50
2023-01-30T11:28:46.966Z,77.25
2023-01-30T11:34:04.406Z,84.50
2023-01-30T11:39:15.935Z,79.25
2023-01-30T11:44:27.269Z,75.00
2023-01-30T11:50:08.034Z,69.50
2023-01-30T11:55:09.249Z,68.25
2023-01-30T12:00:22.547Z,62.50
2023-01-30T12:05:27.818Z,64.25
2023-01-30T12:10:42.531Z,61.25
2023-01-30T12:15:52.473Z,56.75
2023-01-30T12:21:00.354Z,58.75
2023-01-30T12:26:06.853Z,54.25
2023-01-30T12:31:24.571Z,49.00
2023-01-30T12:36:49.831Z,49.75
2023-01-30T12:42:18.181Z,51.00
2023-01-30T12:47:25.857Z,46.00
2023-01-30T12:53:06.060Z,45.50
2023-01-30T12:58:26.176Z,44.50
2023-01-30T13:04:03.452Z,38.50
2023-01-30T13:09:17.163Z,43.25
2023-01-30T13:14:21.738Z,31.50
2023-01-30T13:19:41.190Z,38.75
2023-01-30T13:24:46.662Z,38.00
2023-01-30T13:29:52.273Z,33.25
2023-01-30T13:35:00.113Z,38.25
2023-01-30T13:40:14.014Z,38.75
2023-01-30T13:45:24.981Z,32.00
2023-01-30T13:50:38.830Z,35.00
2023-01-30T13:55:58.756Z,32.25
2023-01-30T14:01:05.208Z,33.25
2023-01-30T14:06:16.822Z,32.00
2023-01-30T14:11:33.990Z,38.00
2023-01-30T14:16:46.674Z,35.75
2023-01-30T14:22:02.560Z,39.50
2023-01-30T14:27:26.605Z,40.50
2023-01-30T14:32:53.876Z,37.75
2023-01-30T14:38:19.435Z,44.00
2023-01-30T14:43:29.789Z,39.75
2023-01-30T14:48:44.634Z,36.50
2023-01-30T14:53:52.715Z,34.00
2023-01-30T14:59:02.154Z,41.50
2023-01-30T15:04:07.959Z,30.25
2023-01-30T15:09:17.857Z,37.25
2023-01-30T15:14:42.894Z,40.25
2023-01-30T15:20:06.494Z,36.50
2023-01-30T15:25:24.712Z,36.00
2023-01-30T15:30:31.371Z,38.50
2023-01-30T15:35:39.551Z,37.00
2023-01-30T15:40:44.632Z,38.75
2023-01-30T15:46:08.353Z,39.25
2023-01-30T15:51:17.704Z,38.50
2023-01-30T15:56:27.519Z,35.25
2023-01-30T16:01:35.744Z,32.25
2023-01-30T16:06:41.145Z,43.75
2023-01-30T16:11:48.436Z,32.25
2023-01-30T16:17:05.618Z,35.75
2023-01-30T16:22:21.552Z,42.50
2023-01-30T16:27:30.974Z,38.25
2023-01-30T16:32:36.931Z,40.25
2023-01-30T16:37:42.133Z,34.00
2023-01-30T16:43:19.225Z,38.75
2023-01-30T16:48:26.982Z,37.50
2023-01-30T16:53:33.565Z,32.25
2023-01-30T16:58:39.835Z,37.50
2023-01-30T17:03:50.701Z,37.50
2023-01-30T17:19:43.277Z,43.00
2023-01-30T17:24:48.258Z,43.75
2023-01-30T17:29:53.147Z,40.50
2023-01-30T17:34:57.941Z,44.25
2023-01-30T17:40:03.264Z,33.25
2023-01-30T17:45:08.522Z,44.75
2023-01-30T17:50:18.188Z,34.75
2023-01-30T17:55:23.313Z,46.25
2023-01-30T18:00:28.561Z,39.75
2023-01-30T18:05:33.248Z,36.00
2023-01-30T18:10:40.458Z,40.00
2023-01-30T18:15:45.296Z,35.75
2023-01-30T18:20:49.898Z,31.00
2023-01-30T18:25:54.473Z,29.00
2023-01-30T18:30:59.184Z,29.50
2023-01-30T18:36:07.932Z,33.25
2023-01-30T18:41:13.660Z,33.00
2023-01-30T18:46:18.915Z,34.00
2023-01-30T18:51:24.770Z,32.75
2023-01-30T18:56:32.536Z,39.00
2023-01-30T19:01:40.150Z,43.75
2023-01-30T19:06:45.150Z,32.00
2023-01-30T19:12:07.542Z,40.00
2023-01-30T19:17:12.384Z,35.75
2023-01-30T19:22:18.158Z,37.25
2023-01-30T19:27:23.383Z,40.50
2023-01-30T19:32:28.154Z,35.25
2023-01-30T19:37:32.999Z,35.00
2023-01-30T19:42:40.354Z,37.75
2023-01-30T19:47:48.285Z,36.50
2023-01-30T19:52:55.834Z,32.25
2023-01-30T19:58:00.645Z,37.25
2023-01-30T20:03:05.224Z,37.75
2023-01-30T20:08:21.842Z,37.75
2023-01-30T20:13:36.159Z,39.00
2023-01-30T20:18:41.361Z,38.50
2023-01-30T20:23:46.475Z,47.00
2023-01-30T20:28:51.049Z,33.75
2023-01-30T20:33:57.913Z,37.00
2023-01-30T20:39:05.150Z,32.50
2023-01-30T20:44:10.535Z,42.25
2023-01-30T20:49:19.752Z,44.25
2023-01-30T20:54:24.966Z,36.00
2023-01-30T20:59:30.042Z,43.25
2023-01-30T21:04:34.643Z,45.25
2023-01-30T21:09:39.474Z,46.00
2023-01-30T21:14:44.002Z,34.75
2023-01-30T21:19:48.233Z,37.50
2023-01-30T21:24:52.756Z,38.00
2023-01-30T21:29:57.550Z,40.75
2023-01-30T21:35:02.050Z,32.75
2023-01-30T21:40:24.997Z,41.00
2023-01-30T21:45:29.209Z,36.50
2023-01-30T21:50:33.695Z,44.00
2023-01-30T21:55:38.869Z,36.25
2023-01-30T22:00:43.437Z,31.75
2023-01-30T22:05:47.860Z,32.75
2023-01-30T22:10:52.480Z,32.25
2023-01-30T22:15:56.995Z,30.50
2023-01-30T22:21:09.014Z,28.00
2023-01-30T22:26:14.307Z,31.00
2023-01-30T22:31:20.096Z,30.25
2023-01-30T22:36:25.903Z,35.50
2023-01-30T22:41:32.253Z,34.00
2023-01-30T22:46:38.691Z,35.50
2023-01-30T22:51:44.826Z,30.00
2023-01-30T22:56:50.256Z,34.75
2023-01-30T23:01:54.928Z,32.75
2023-01-30T23:07:00.806Z,39.25
2023-01-30T23:12:23.500Z,38.00
2023-01-30T23:17:46.718Z,41.50
2023-01-30T23:22:54.585Z,32.25
2023-01-30T23:27:59.283Z,35.50
2023-01-30T23:33:03.911Z,37.00
2023-01-30T23:38:17.274Z,35.00
2023-01-30T23:43:22.005Z,35.75
2023-01-30T23:48:26.555Z,38.75
2023-01-30T23:53:31.081Z,35.25
2023-01-30T23:58:36.470Z,35.75
